createdAt,value
2017-12-16T00:01:08.838Z,21.27
2017-12-16T00:03:36.390Z,20.63
2017-12-16T00:06:03.940Z,18.93
2017-12-16T00:08:31.474Z,19.73
2017-12-16T00:10:59.011Z,20.03
2017-12-16T00:13:26.550Z,18.87
2017-12-16T00:15:54.085Z,19.07
2017-12-16T00:18:21.614Z,19.43
2017-12-16T00:20:49.147Z,20.20
2017-12-16T00:23:16.678Z,21.63
2017-12-16T00:25:44.232Z,20.80
2017-12-16T00:28:11.786Z,20.87
2017-12-16T00:30:39.337Z,20.70
2017-12-16T00:33:06.878Z,21.00
2017-12-16T00:35:34.428Z,20.83
2017-12-16T00:38:01.973Z,21.07
2017-12-16T00:40:29.511Z,22.53
2017-12-16T00:42:57.064Z,22.97
2017-12-16T00:45:24.594Z,22.20
2017-12-16T00:47:52.127Z,21.73
2017-12-16T00:50:19.662Z,22.23
2017-12-16T00:52:47.205Z,21.37
2017-12-16T00:55:14.749Z,22.13
2017-12-16T00:57:42.287Z,21.97
2017-12-16T01:00:09.826Z,23.50
2017-12-16T01:02:37.365Z,23.13
2017-12-16T01:05:04.901Z,21.57
2017-12-16T01:07:32.445Z,21.17
2017-12-16T01:09:59.986Z,23.47
2017-12-16T01:12:27.550Z,21.50
2017-12-16T01:14:55.098Z,22.23
2017-12-16T01:17:22.643Z,21.40
2017-12-16T01:19:50.189Z,21.00
2017-12-16T01:22:17.734Z,22.60
2017-12-16T01:24:45.265Z,23.60
2017-12-16T01:27:12.809Z,22.83
2017-12-16T01:29:40.341Z,22.10
2017-12-16T01:32:07.891Z,22.70
2017-12-16T01:37:48.981Z,22.53
2017-12-16T01:40:16.530Z,22.40
2017-12-16T01:42:44.060Z,23.03
2017-12-16T01:45:11.611Z,22.53
2017-12-16T01:47:39.158Z,23.10
2017-12-16T01:50:06.740Z,23.83
2017-12-16T01:52:34.292Z,22.73
2017-12-16T01:55:01.830Z,21.57
2017-12-16T01:57:29.374Z,23.50
2017-12-16T01:59:56.921Z,22.93
2017-12-16T02:02:24.470Z,23.30
2017-12-16T02:04:52.033Z,22.30
2017-12-16T02:07:19.570Z,23.57
2017-12-16T02:09:47.110Z,22.03
2017-12-16T02:12:14.658Z,22.17
2017-12-16T02:14:42.189Z,22.77
2017-12-16T02:17:09.734Z,21.53
2017-12-16T02:19:37.274Z,21.93
2017-12-16T02:22:04.814Z,23.13
2017-12-16T02:24:32.357Z,22.13
2017-12-16T02:26:59.890Z,22.63
2017-12-16T02:29:27.434Z,22.43
2017-12-16T02:31:54.978Z,22.53
2017-12-16T02:34:22.527Z,21.83
2017-12-16T02:36:50.073Z,21.40
2017-12-16T02:39:17.605Z,22.13
2017-12-16T02:41:45.143Z,21.53
2017-12-16T02:44:12.674Z,22.33
2017-12-16T02:46:40.225Z,20.40
2017-12-16T02:49:07.753Z,21.90
2017-12-16T02:51:35.299Z,22.30
2017-12-16T02:54:02.839Z,21.97
2017-12-16T02:56:30.390Z,22.37
2017-12-16T02:58:57.943Z,21.97
2017-12-16T03:01:25.482Z,21.43
2017-12-16T03:03:53.014Z,21.40
2017-12-16T03:06:20.565Z,23.07
2017-12-16T03:08:48.106Z,22.40
2017-12-16T03:11:15.646Z,21.10
2017-12-16T03:13:43.181Z,21.57
2017-12-16T03:16:10.710Z,22.73
2017-12-16T03:18:38.254Z,22.57
2017-12-16T03:21:05.797Z,21.70
2017-12-16T03:23:33.351Z,21.60
2017-12-16T03:26:00.899Z,21.47
2017-12-16T03:28:28.438Z,22.80
2017-12-16T03:30:55.980Z,21.03
2017-12-16T03:33:23.522Z,22.57
2017-12-16T03:35:51.053Z,21.10
2017-12-16T03:38:18.598Z,21.93
2017-12-16T03:40:46.121Z,21.93
2017-12-16T03:43:13.662Z,21.33
2017-12-16T03:45:41.198Z,21.10
2017-12-16T03:48:08.754Z,22.33
2017-12-16T03:50:36.301Z,22.40
2017-12-16T03:53:03.841Z,21.97
2017-12-16T03:55:31.377Z,21.90
2017-12-16T03:57:58.917Z,22.60
2017-12-16T04:00:26.458Z,22.53
2017-12-16T04:02:54.003Z,22.77
2017-12-16T04:05:21.595Z,22.87
2017-12-16T04:07:49.134Z,22.77
2017-12-16T04:10:16.693Z,22.13
2017-12-16T04:12:44.247Z,22.87
2017-12-16T04:15:11.807Z,22.67
2017-12-16T04:17:39.354Z,22.40
2017-12-16T04:20:06.886Z,22.50
2017-12-16T04:22:34.431Z,23.00
2017-12-16T04:25:01.982Z,23.73
2017-12-16T04:27:29.531Z,22.23
2017-12-16T04:29:57.089Z,23.43
2017-12-16T04:32:24.634Z,21.63
2017-12-16T04:34:52.182Z,22.03
2017-12-16T04:37:19.735Z,21.90
2017-12-16T04:39:47.291Z,23.20
2017-12-16T04:42:14.822Z,22.33
2017-12-16T04:44:42.358Z,22.10
2017-12-16T04:47:09.912Z,22.17
2017-12-16T04:49:37.470Z,22.53
2017-12-16T04:52:05.028Z,22.53
2017-12-16T04:54:32.562Z,23.20
2017-12-16T04:57:00.120Z,23.37
2017-12-16T04:59:27.661Z,22.57
2017-12-16T05:01:55.218Z,23.20
2017-12-16T05:04:22.762Z,22.27
2017-12-16T05:06:50.308Z,22.00
2017-12-16T05:09:17.850Z,22.70
2017-12-16T05:11:45.404Z,22.93
2017-12-16T05:14:12.951Z,23.03
2017-12-16T05:16:40.503Z,23.27
2017-12-16T05:19:08.054Z,23.60
2017-12-16T05:21:35.598Z,22.80
2017-12-16T05:24:03.149Z,23.10
2017-12-16T05:26:30.691Z,23.33
2017-12-16T05:28:58.226Z,23.07
2017-12-16T05:31:25.763Z,23.10
2017-12-16T05:33:53.311Z,23.20
2017-12-16T05:36:20.850Z,22.40
2017-12-16T05:38:48.399Z,22.17
2017-12-16T05:41:15.936Z,24.93
2017-12-16T05:43:43.480Z,23.30
2017-12-16T05:46:11.031Z,23.63
2017-12-16T05:48:38.565Z,22.60
2017-12-16T05:51:06.106Z,23.07
2017-12-16T05:53:33.647Z,23.07
2017-12-16T05:56:01.185Z,22.73
2017-12-16T05:58:28.726Z,22.40
2017-12-16T06:00:56.275Z,23.83
2017-12-16T06:03:23.832Z,23.60
2017-12-16T06:05:51.391Z,23.07
2017-12-16T06:08:18.943Z,24.87
2017-12-16T06:10:46.495Z,22.80
2017-12-16T06:13:14.039Z,24.90
2017-12-16T06:15:41.582Z,23.87
2017-12-16T06:18:09.131Z,23.47
2017-12-16T06:20:36.673Z,24.67
2017-12-16T06:23:04.202Z,23.53
2017-12-16T06:25:31.730Z,23.43
2017-12-16T06:27:59.278Z,23.70
2017-12-16T06:30:26.812Z,23.07
2017-12-16T06:32:54.346Z,23.40
2017-12-16T06:35:21.919Z,23.70
2017-12-16T06:37:49.466Z,23.77
2017-12-16T06:40:17.015Z,22.83
2017-12-16T06:42:44.557Z,21.43
2017-12-16T06:45:12.081Z,21.23
2017-12-16T06:47:39.624Z,22.57
2017-12-16T06:50:07.161Z,21.60
2017-12-16T06:52:34.690Z,22.13
2017-12-16T06:55:02.225Z,22.60
2017-12-16T06:57:29.776Z,21.67
2017-12-16T06:59:57.320Z,22.00
2017-12-16T07:02:24.862Z,21.97
2017-12-16T07:04:52.420Z,21.37
2017-12-16T07:07:19.979Z,21.33
2017-12-16T07:09:47.534Z,22.23
2017-12-16T07:12:15.067Z,22.97
2017-12-16T07:14:42.629Z,23.40
2017-12-16T07:17:10.169Z,23.87
2017-12-16T07:19:37.698Z,22.60
2017-12-16T07:22:05.281Z,23.63
2017-12-16T07:24:32.830Z,22.70
2017-12-16T07:27:00.377Z,23.27
2017-12-16T07:29:27.910Z,22.90
2017-12-16T07:31:55.457Z,22.70
2017-12-16T07:34:23.002Z,23.43
2017-12-16T07:36:50.542Z,24.07
2017-12-16T07:39:18.094Z,22.53
2017-12-16T07:41:45.642Z,23.23
2017-12-16T07:44:13.191Z,23.17
2017-12-16T07:46:40.742Z,24.30
2017-12-16T07:49:08.301Z,22.77
2017-12-16T07:51:35.865Z,22.53
2017-12-16T07:54:03.411Z,25.10
2017-12-16T07:56:30.954Z,22.80
2017-12-16T07:58:58.511Z,24.23
2017-12-16T08:01:26.062Z,22.00
2017-12-16T08:03:53.598Z,22.83
2017-12-16T08:06:21.143Z,24.43
2017-12-16T08:08:48.691Z,23.63
2017-12-16T08:11:16.235Z,24.63
2017-12-16T08:13:43.787Z,23.83
2017-12-16T08:16:11.339Z,23.87
2017-12-16T08:18:38.900Z,23.50
2017-12-16T08:21:06.447Z,25.70
2017-12-16T08:23:33.990Z,23.83
2017-12-16T08:26:01.529Z,23.70
2017-12-16T08:28:29.087Z,25.70
2017-12-16T08:30:56.628Z,23.93
2017-12-16T08:33:24.186Z,25.10
2017-12-16T08:35:51.735Z,24.70
2017-12-16T08:38:19.291Z,23.13
2017-12-16T08:40:46.843Z,24.43
2017-12-16T08:43:14.405Z,23.97
2017-12-16T08:45:41.951Z,24.30
2017-12-16T08:48:09.499Z,22.80
2017-12-16T08:50:37.051Z,23.13
2017-12-16T08:53:04.597Z,24.10
2017-12-16T08:55:32.154Z,22.47
2017-12-16T08:57:59.732Z,22.83
2017-12-16T09:00:27.289Z,23.43
2017-12-16T09:02:54.850Z,20.60
2017-12-16T09:05:22.390Z,20.90
2017-12-16T09:07:49.946Z,21.10
2017-12-16T09:10:17.815Z,21.73
2017-12-16T09:12:45.748Z,21.37
2017-12-16T09:15:13.299Z,21.10
2017-12-16T09:17:40.830Z,19.70
2017-12-16T09:20:08.594Z,21.47
2017-12-16T09:22:36.142Z,21.27
2017-12-16T09:25:03.707Z,20.60
2017-12-16T09:27:31.248Z,20.73
2017-12-16T09:29:58.791Z,20.50
2017-12-16T09:32:26.325Z,20.83
2017-12-16T09:34:53.875Z,20.23
2017-12-16T09:37:21.436Z,21.37
2017-12-16T09:39:48.989Z,21.03
2017-12-16T09:42:16.539Z,19.33
2017-12-16T09:44:44.082Z,20.53
2017-12-16T09:47:11.614Z,20.20
2017-12-16T09:49:39.155Z,19.90
2017-12-16T09:52:06.760Z,19.40
2017-12-16T09:54:36.500Z,19.90
2017-12-16T09:57:06.223Z,20.17
2017-12-16T09:59:33.945Z,21.23
2017-12-16T10:02:01.564Z,20.97
2017-12-16T10:04:29.642Z,21.00
2017-12-16T10:06:57.189Z,21.97
2017-12-16T10:09:24.749Z,22.30
2017-12-16T10:11:52.273Z,22.60
2017-12-16T10:14:19.806Z,22.03
2017-12-16T10:16:47.333Z,23.30
2017-12-16T10:19:14.863Z,23.03
2017-12-16T10:21:42.393Z,22.30
2017-12-16T10:24:09.911Z,23.27
2017-12-16T10:26:37.445Z,23.60
2017-12-16T10:29:04.982Z,22.20
2017-12-16T10:31:32.620Z,24.70
2017-12-16T10:34:00.144Z,22.90
2017-12-16T10:36:27.676Z,24.77
2017-12-16T10:38:55.202Z,25.57
2017-12-16T10:41:22.726Z,24.33
2017-12-16T10:43:50.271Z,26.07
2017-12-16T10:46:17.798Z,26.87
2017-12-16T10:48:45.324Z,25.03
2017-12-16T10:51:12.882Z,24.70
2017-12-16T10:53:40.411Z,26.33
2017-12-16T10:56:07.932Z,25.60
2017-12-16T10:58:35.511Z,25.00
2017-12-16T11:01:03.050Z,30.00
2017-12-16T11:03:30.574Z,27.27
2017-12-16T11:05:58.107Z,26.50
2017-12-16T11:08:25.627Z,26.77
2017-12-16T11:10:53.152Z,25.00
2017-12-16T11:13:20.678Z,24.93
2017-12-16T11:15:48.250Z,24.70
2017-12-16T11:18:15.825Z,24.13
2017-12-16T11:20:43.364Z,23.53
2017-12-16T11:23:10.906Z,22.73
2017-12-16T11:25:38.462Z,23.80
2017-12-16T11:28:05.988Z,23.37
2017-12-16T11:30:33.502Z,22.80
2017-12-16T11:33:01.032Z,23.03
2017-12-16T11:35:29.410Z,23.07
2017-12-16T11:37:56.938Z,21.80
2017-12-16T11:40:24.459Z,21.67
2017-12-16T11:42:51.987Z,20.93
2017-12-16T11:45:20.394Z,19.23
2017-12-16T11:47:48.211Z,20.60
2017-12-16T11:50:15.750Z,19.83
2017-12-16T11:52:43.278Z,19.27
2017-12-16T11:55:10.810Z,19.73
2017-12-16T11:57:38.337Z,20.73
2017-12-16T12:00:06.779Z,20.43
2017-12-16T12:02:34.306Z,19.00
2017-12-16T12:05:01.833Z,19.03
2017-12-16T12:07:29.359Z,19.87
2017-12-16T12:09:57.777Z,20.00
2017-12-16T12:12:25.847Z,19.53
2017-12-16T12:14:53.365Z,19.50
2017-12-16T12:17:20.881Z,19.77
2017-12-16T12:19:48.407Z,20.00
2017-12-16T12:22:15.947Z,20.37
2017-12-16T12:24:43.468Z,19.10
2017-12-16T12:27:10.985Z,21.17
2017-12-16T12:29:38.504Z,20.10
2017-12-16T12:32:06.017Z,19.63
2017-12-16T12:34:33.534Z,19.83
2017-12-16T12:37:01.061Z,19.53
2017-12-16T12:39:28.589Z,20.03
2017-12-16T12:41:56.109Z,19.37
2017-12-16T12:44:23.642Z,19.83
2017-12-16T12:46:51.166Z,19.07
2017-12-16T12:49:18.685Z,19.83
2017-12-16T12:51:46.251Z,19.90
2017-12-16T12:54:13.782Z,20.33
2017-12-16T12:56:41.305Z,20.30
2017-12-16T12:59:08.865Z,19.00
2017-12-16T13:01:36.412Z,20.37
2017-12-16T13:04:03.970Z,20.00
2017-12-16T13:06:31.500Z,20.43
2017-12-16T13:08:59.026Z,21.40
2017-12-16T13:11:26.548Z,22.00
2017-12-16T13:13:54.070Z,22.00
2017-12-16T13:16:21.593Z,21.57
2017-12-16T13:18:49.109Z,21.13
2017-12-16T13:21:16.645Z,22.30
2017-12-16T13:23:44.201Z,20.37
2017-12-16T13:26:11.756Z,21.53
2017-12-16T13:28:39.277Z,21.30
2017-12-16T13:31:06.798Z,20.30
2017-12-16T13:33:34.317Z,22.17
2017-12-16T13:36:01.834Z,21.07
2017-12-16T13:38:29.349Z,21.73
2017-12-16T13:40:56.874Z,21.33
2017-12-16T13:43:24.417Z,20.03
2017-12-16T13:45:51.963Z,20.73
2017-12-16T13:48:19.499Z,21.13
2017-12-16T13:50:47.027Z,21.03
2017-12-16T13:53:14.541Z,20.87
2017-12-16T13:55:42.058Z,21.60
2017-12-16T13:58:10.168Z,21.50
2017-12-16T14:00:37.702Z,21.17
2017-12-16T14:03:05.597Z,22.10
2017-12-16T14:05:33.126Z,20.93
2017-12-16T14:08:00.667Z,19.83
2017-12-16T14:10:28.225Z,19.83
2017-12-16T14:12:55.779Z,20.63
2017-12-16T14:15:23.304Z,22.80
2017-12-16T14:17:50.825Z,19.07
2017-12-16T14:20:18.357Z,20.50
2017-12-16T14:22:45.876Z,20.07
2017-12-16T14:25:13.933Z,19.00
2017-12-16T14:27:41.456Z,20.07
2017-12-16T14:30:08.990Z,20.17
2017-12-16T14:32:36.530Z,18.80
2017-12-16T14:35:04.838Z,19.40
2017-12-16T14:37:32.362Z,19.03
2017-12-16T14:39:59.885Z,17.60
2017-12-16T14:42:27.417Z,18.47
2017-12-16T14:44:54.990Z,19.37
2017-12-16T14:47:22.509Z,18.03
2017-12-16T14:49:50.047Z,17.70
2017-12-16T14:52:17.686Z,17.97
2017-12-16T16:16:42.165Z,17.17
2017-12-16T16:19:09.682Z,16.13
2017-12-16T16:21:38.130Z,18.40
2017-12-16T16:24:06.105Z,18.40
2017-12-16T16:26:33.629Z,17.33
2017-12-16T16:29:01.154Z,17.47
2017-12-16T16:31:28.675Z,16.67
2017-12-16T16:33:56.208Z,17.20
2017-12-16T16:36:23.734Z,16.73
2017-12-16T16:38:51.252Z,16.83
2017-12-16T16:41:18.778Z,16.70
2017-12-16T16:43:46.311Z,17.57
2017-12-16T16:46:13.849Z,16.10
2017-12-16T16:48:41.369Z,15.33
2017-12-16T16:51:08.885Z,15.20
2017-12-16T16:53:36.409Z,16.43
2017-12-16T16:56:03.939Z,16.13
2017-12-16T16:58:31.479Z,16.60
2017-12-16T17:00:58.992Z,16.60
2017-12-16T17:03:26.539Z,16.17
2017-12-16T17:05:54.571Z,16.30
2017-12-16T17:08:22.112Z,16.57
2017-12-16T17:10:49.669Z,16.63
2017-12-16T17:13:17.220Z,17.30
2017-12-16T17:15:44.784Z,15.83
2017-12-16T17:18:12.334Z,15.47
2017-12-16T17:20:39.865Z,16.67
2017-12-16T17:23:07.394Z,18.50
2017-12-16T17:25:35.258Z,16.40
2017-12-16T17:28:02.816Z,15.70
2017-12-16T17:30:30.382Z,16.93
2017-12-16T17:32:57.935Z,15.53
2017-12-16T17:35:25.465Z,15.80
2017-12-16T17:37:52.990Z,15.97
2017-12-16T17:40:20.520Z,15.53
2017-12-16T17:42:48.039Z,16.03
2017-12-16T17:45:15.599Z,15.40
2017-12-16T17:47:43.167Z,15.17
2017-12-16T17:50:10.698Z,15.60
2017-12-16T17:52:38.222Z,14.80
2017-12-16T17:55:05.739Z,15.40
2017-12-16T17:57:33.261Z,14.57
2017-12-16T18:00:00.842Z,14.43
2017-12-16T18:02:28.413Z,14.77
2017-12-16T18:04:55.955Z,14.43
2017-12-16T18:07:23.485Z,15.40
2017-12-16T18:09:51.035Z,13.93
2017-12-16T18:12:18.574Z,13.87
2017-12-16T18:14:46.115Z,13.00
2017-12-16T18:17:13.646Z,13.07
2017-12-16T18:19:41.167Z,12.73
2017-12-16T18:22:08.681Z,13.27
2017-12-16T18:24:36.214Z,13.77
2017-12-16T18:27:03.790Z,12.50
2017-12-16T18:29:31.328Z,13.40
2017-12-16T18:31:58.891Z,13.03
2017-12-16T18:34:26.452Z,13.10
2017-12-16T18:36:53.998Z,13.50
2017-12-16T18:39:21.539Z,13.23
2017-12-16T18:41:49.058Z,13.50
2017-12-16T18:44:16.581Z,12.30
2017-12-16T18:46:44.102Z,12.83
2017-12-16T18:49:11.661Z,13.90
2017-12-16T18:51:39.198Z,13.87
2017-12-16T18:54:06.737Z,13.83
2017-12-16T18:56:34.262Z,13.37
2017-12-16T18:59:01.782Z,12.60
2017-12-16T19:01:29.309Z,15.10
2017-12-16T19:03:56.857Z,14.87
2017-12-16T19:06:24.454Z,14.77
2017-12-16T19:08:51.982Z,13.43
2017-12-16T19:11:19.513Z,14.00
2017-12-16T19:13:47.043Z,14.33
2017-12-16T19:16:14.629Z,13.87
2017-12-16T19:18:42.160Z,13.57
2017-12-16T19:21:09.689Z,13.27
2017-12-16T19:23:37.221Z,13.47
2017-12-16T19:26:04.777Z,14.10
2017-12-16T19:28:32.297Z,12.60
2017-12-16T19:30:59.824Z,13.97
2017-12-16T19:33:27.347Z,13.80
2017-12-16T19:35:54.908Z,13.07
2017-12-16T19:38:22.443Z,13.50
2017-12-16T19:40:49.962Z,13.33
2017-12-16T19:43:17.486Z,13.73
2017-12-16T19:45:45.036Z,13.00
2017-12-16T19:48:12.568Z,12.60
2017-12-16T19:50:40.098Z,13.07
2017-12-16T19:53:07.610Z,12.63
2017-12-16T19:55:35.190Z,14.03
2017-12-16T19:58:02.714Z,12.50
2017-12-16T20:00:30.260Z,12.57
2017-12-16T20:02:57.790Z,12.97
2017-12-16T20:05:25.317Z,12.93
2017-12-16T20:07:52.890Z,13.30
2017-12-16T20:10:20.427Z,12.37
2017-12-16T20:12:47.954Z,13.80
2017-12-16T20:15:15.494Z,12.53
2017-12-16T20:17:43.056Z,12.27
2017-12-16T20:20:10.584Z,12.37
2017-12-16T20:22:38.115Z,12.60
2017-12-16T20:25:05.644Z,12.30
2017-12-16T20:27:33.174Z,13.17
2017-12-16T20:30:00.722Z,13.23
2017-12-16T20:32:28.258Z,13.40
2017-12-16T20:34:55.784Z,12.47
2017-12-16T20:37:23.332Z,13.53
2017-12-16T20:39:50.865Z,12.97
2017-12-16T20:42:18.390Z,12.17
2017-12-16T20:44:45.913Z,12.77
2017-12-16T20:47:13.433Z,12.67
2017-12-16T20:49:40.958Z,13.80
2017-12-16T20:52:08.481Z,13.10
2017-12-16T20:54:36.011Z,12.70
2017-12-16T20:57:03.583Z,12.70
2017-12-16T20:59:31.096Z,13.77
2017-12-16T21:01:58.619Z,13.93
2017-12-16T21:04:26.166Z,13.37
2017-12-16T21:06:53.737Z,13.07
2017-12-16T21:09:21.296Z,13.33
2017-12-16T21:11:48.836Z,12.93
2017-12-16T21:14:16.370Z,13.03
2017-12-16T21:16:43.897Z,14.10
2017-12-16T21:19:11.425Z,15.07
2017-12-16T21:21:38.946Z,15.43
2017-12-16T21:24:06.479Z,16.20
2017-12-16T21:26:34.023Z,16.77
2017-12-16T21:29:01.646Z,15.63
2017-12-16T21:31:29.501Z,14.70
2017-12-16T21:33:57.176Z,13.47
2017-12-16T21:36:24.843Z,13.83
2017-12-16T21:38:52.536Z,13.73
2017-12-16T21:41:20.221Z,13.83
2017-12-16T21:43:47.947Z,12.97
2017-12-16T21:46:15.656Z,13.27
2017-12-16T21:48:43.499Z,13.80
2017-12-16T21:51:11.172Z,12.77
2017-12-16T21:53:38.790Z,13.03
2017-12-16T21:56:06.410Z,12.80
2017-12-16T21:58:33.982Z,12.83
2017-12-16T22:01:03.108Z,12.37
2017-12-16T22:03:32.618Z,12.23
2017-12-16T22:06:01.013Z,13.00
2017-12-16T22:08:29.218Z,12.70
2017-12-16T22:10:57.008Z,11.83
2017-12-16T22:13:24.743Z,12.13
2017-12-16T22:15:52.462Z,11.33
2017-12-16T22:18:20.291Z,12.27
2017-12-16T22:20:48.112Z,11.97
2017-12-16T22:23:15.759Z,12.67
2017-12-16T22:25:43.455Z,12.60
2017-12-16T22:28:11.051Z,12.93
2017-12-16T22:30:38.717Z,12.43
2017-12-16T22:33:06.322Z,12.10
2017-12-16T22:35:33.960Z,12.10
2017-12-16T22:38:01.534Z,11.97
2017-12-16T22:40:29.178Z,11.97
2017-12-16T22:42:56.992Z,12.37
2017-12-16T22:45:24.646Z,12.17
2017-12-16T22:47:52.310Z,12.87
2017-12-16T22:50:19.919Z,14.75
2017-12-16T22:52:47.552Z,13.17
2017-12-16T22:55:15.151Z,12.10
2017-12-16T22:57:42.689Z,11.77
2017-12-16T23:00:10.418Z,11.67
2017-12-16T23:02:38.094Z,11.60
2017-12-16T23:05:05.811Z,12.30
2017-12-16T23:07:33.598Z,11.23
2017-12-16T23:10:01.170Z,11.70
2017-12-16T23:12:28.837Z,10.43
2017-12-16T23:14:56.462Z,10.50
2017-12-16T23:17:24.106Z,10.47
2017-12-16T23:19:52.105Z,11.23
2017-12-16T23:22:22.459Z,10.97
2017-12-16T23:24:50.142Z,11.00
2017-12-16T23:27:17.690Z,12.03
2017-12-16T23:29:45.332Z,10.87
2017-12-16T23:32:14.299Z,10.97
2017-12-16T23:34:44.109Z,10.87
2017-12-16T23:37:15.272Z,9.57
2017-12-16T23:39:45.013Z,10.43
2017-12-16T23:42:14.362Z,10.70
2017-12-16T23:44:42.953Z,9.77
2017-12-16T23:47:10.801Z,8.73
2017-12-16T23:49:38.640Z,9.47
2017-12-16T23:52:06.400Z,9.73
2017-12-16T23:54:35.655Z,9.60
2017-12-16T23:57:04.875Z,8.93
